createdAt,value
2019-02-24T00:00:38.161Z,28.07
2019-02-24T00:03:05.422Z,26.37
2019-02-24T00:05:32.776Z,24.33
2019-02-24T00:08:00.064Z,25.20
2019-02-24T00:10:27.403Z,25.07
2019-02-24T00:12:54.803Z,23.63
2019-02-24T00:15:22.058Z,23.83
2019-02-24T00:17:49.374Z,23.80
2019-02-24T00:20:16.657Z,25.77
2019-02-24T00:22:43.946Z,24.87
2019-02-24T00:25:11.295Z,25.37
2019-02-24T00:27:38.550Z,25.00
2019-02-24T00:30:05.958Z,29.77
2019-02-24T00:32:34.476Z,30.17
2019-02-24T00:35:01.852Z,26.00
2019-02-24T00:37:29.172Z,27.17
2019-02-24T00:39:56.421Z,23.93
2019-02-24T00:42:23.670Z,25.13
2019-02-24T00:44:50.965Z,24.60
2019-02-24T00:47:18.317Z,26.33
2019-02-24T00:49:45.616Z,24.30
2019-02-24T00:52:12.851Z,30.03
2019-02-24T00:54:40.160Z,24.23
2019-02-24T00:57:07.400Z,26.73
2019-02-24T00:59:34.639Z,25.07
2019-02-24T01:02:01.929Z,26.13
2019-02-24T01:04:29.189Z,30.40
2019-02-24T01:06:56.454Z,29.20
2019-02-24T01:09:23.865Z,29.20
2019-02-24T01:11:51.119Z,28.97
2019-02-24T01:14:18.362Z,25.73
2019-02-24T01:16:46.067Z,31.13
2019-02-24T01:19:13.323Z,26.27
2019-02-24T01:21:40.651Z,26.47
2019-02-24T01:24:07.925Z,26.07
2019-02-24T01:26:35.175Z,30.03
2019-02-24T01:29:02.464Z,30.73
2019-02-24T01:31:29.721Z,28.80
2019-02-24T01:33:57.010Z,28.43
2019-02-24T01:36:24.307Z,28.17
2019-02-24T01:38:51.570Z,31.37
2019-02-24T01:41:18.834Z,32.47
2019-02-24T01:43:46.139Z,30.40
2019-02-24T01:46:13.385Z,32.10
2019-02-24T01:48:40.689Z,31.20
2019-02-24T01:51:08.012Z,32.17
2019-02-24T01:53:35.269Z,31.53
2019-02-24T01:56:02.559Z,28.77
2019-02-24T01:58:35.170Z,31.70
2019-02-24T02:00:59.007Z,30.27
2019-02-24T02:03:26.289Z,34.47
2019-02-24T02:05:53.626Z,30.83
2019-02-24T02:08:20.916Z,30.17
2019-02-24T02:10:48.221Z,27.70
2019-02-24T02:13:15.516Z,28.73
2019-02-24T02:15:42.806Z,29.17
2019-02-24T02:18:10.056Z,29.53
2019-02-24T02:20:37.342Z,36.27
2019-02-24T02:23:04.605Z,31.50
2019-02-24T02:25:31.927Z,30.50
2019-02-24T02:27:59.204Z,31.53
2019-02-24T02:30:26.498Z,27.97
2019-02-24T02:32:53.796Z,31.30
2019-02-24T02:35:21.246Z,29.53
2019-02-24T02:37:48.553Z,31.13
2019-02-24T02:40:15.924Z,28.40
2019-02-24T02:43:01.893Z,29.00
2019-02-24T02:45:29.258Z,29.03
2019-02-24T02:47:56.516Z,25.90
2019-02-24T02:50:23.796Z,28.17
2019-02-24T02:52:51.065Z,29.17
2019-02-24T02:55:21.600Z,27.23
2019-02-24T02:57:53.248Z,31.27
2019-02-24T03:00:33.561Z,29.67
2019-02-24T03:03:00.842Z,29.87
2019-02-24T03:05:28.353Z,27.13
2019-02-24T03:08:14.286Z,27.40
2019-02-24T03:10:41.641Z,28.40
2019-02-24T03:13:09.011Z,25.73
2019-02-24T03:15:36.295Z,24.43
2019-02-24T03:18:03.541Z,28.33
2019-02-24T03:20:31.021Z,23.23
2019-02-24T03:22:58.296Z,26.07
2019-02-24T03:25:25.560Z,23.60
2019-02-24T03:27:52.940Z,28.47
2019-02-24T03:30:20.154Z,28.83
2019-02-24T03:32:47.450Z,26.80
2019-02-24T03:35:14.745Z,26.77
2019-02-24T03:37:42.072Z,28.10
2019-02-24T03:40:09.448Z,23.83
2019-02-24T03:42:36.697Z,23.60
2019-02-24T03:45:04.203Z,26.33
2019-02-24T03:47:31.531Z,23.30
2019-02-24T03:49:58.867Z,28.07
2019-02-24T03:52:26.110Z,25.73
2019-02-24T03:54:53.482Z,23.90
2019-02-24T03:57:20.741Z,26.30
2019-02-24T03:59:48.146Z,26.50
2019-02-24T04:02:15.524Z,30.67
2019-02-24T04:04:42.831Z,28.80
2019-02-24T04:07:10.106Z,30.87
2019-02-24T04:09:37.441Z,28.27
2019-02-24T04:12:04.704Z,24.37
2019-02-24T04:14:31.986Z,26.00
2019-02-24T04:16:59.285Z,25.60
2019-02-24T04:19:26.968Z,26.23
2019-02-24T04:21:55.604Z,27.47
2019-02-24T04:24:23.302Z,23.37
2019-02-24T04:26:50.593Z,28.37
2019-02-24T04:29:24.508Z,25.63
2019-02-24T04:31:47.172Z,29.07
2019-02-24T04:34:14.444Z,25.50
2019-02-24T04:36:41.766Z,25.53
2019-02-24T04:39:09.089Z,22.60
2019-02-24T04:41:36.414Z,23.43
2019-02-24T04:44:03.709Z,23.43
2019-02-24T04:46:31.131Z,24.43
2019-02-24T04:48:58.472Z,25.00
2019-02-24T04:51:25.799Z,22.20
2019-02-24T04:53:53.230Z,23.93
2019-02-24T04:56:20.480Z,23.47
2019-02-24T04:58:49.455Z,27.27
2019-02-24T05:01:16.832Z,23.43
2019-02-24T05:03:44.260Z,22.63
2019-02-24T05:06:12.219Z,26.60
2019-02-24T05:08:39.509Z,22.73
2019-02-24T05:11:06.753Z,24.27
2019-02-24T05:13:34.038Z,22.73
2019-02-24T05:16:03.855Z,23.97
2019-02-24T05:18:31.110Z,23.57
2019-02-24T05:20:58.436Z,26.10
2019-02-24T05:23:25.734Z,30.43
2019-02-24T05:25:55.766Z,26.73
2019-02-24T05:28:23.095Z,25.03
2019-02-24T05:30:50.353Z,27.33
2019-02-24T05:33:17.627Z,24.47
2019-02-24T05:35:44.969Z,25.53
2019-02-24T05:38:12.239Z,23.90
2019-02-24T05:40:39.549Z,22.67
2019-02-24T05:43:06.907Z,21.20
2019-02-24T05:45:34.189Z,21.20
2019-02-24T05:48:01.487Z,26.30
2019-02-24T05:50:32.497Z,21.90
2019-02-24T05:52:59.959Z,24.07
2019-02-24T05:55:27.375Z,25.47
2019-02-24T05:57:55.084Z,22.97
2019-02-24T06:00:22.521Z,24.13
2019-02-24T06:02:49.958Z,23.33
2019-02-24T06:05:17.400Z,22.10
2019-02-24T06:07:44.721Z,23.93
2019-02-24T06:10:12.036Z,20.83
2019-02-24T06:12:39.352Z,22.13
2019-02-24T06:15:06.739Z,23.57
2019-02-24T06:17:33.987Z,24.57
2019-02-24T06:20:01.325Z,26.50
2019-02-24T06:22:28.587Z,28.37
2019-02-24T06:24:55.867Z,24.07
2019-02-24T06:27:23.169Z,23.57
2019-02-24T06:29:50.413Z,23.87
2019-02-24T06:32:17.653Z,23.70
2019-02-24T06:34:44.954Z,25.93
2019-02-24T06:37:12.212Z,27.37
2019-02-24T06:39:39.514Z,26.33
2019-02-24T06:42:06.862Z,23.90
2019-02-24T06:44:34.123Z,21.53
2019-02-24T06:47:01.397Z,22.57
2019-02-24T06:49:28.693Z,22.10
2019-02-24T06:51:57.421Z,20.93
2019-02-24T06:54:24.726Z,20.27
2019-02-24T06:56:52.031Z,20.20
2019-02-24T06:59:19.370Z,21.37
2019-02-24T07:01:47.793Z,19.97
2019-02-24T07:04:15.141Z,18.40
2019-02-24T07:06:42.459Z,23.43
2019-02-24T07:09:09.793Z,20.67
2019-02-24T07:11:37.118Z,19.80
2019-02-24T07:14:04.395Z,20.83
2019-02-24T07:16:31.640Z,18.87
2019-02-24T07:19:00.086Z,21.77
2019-02-24T07:21:27.350Z,22.67
2019-02-24T07:23:54.728Z,24.50
2019-02-24T07:26:22.037Z,22.90
2019-02-24T07:28:49.339Z,28.90
2019-02-24T07:31:16.669Z,22.87
2019-02-24T07:33:43.966Z,20.73
2019-02-24T07:36:11.326Z,20.73
2019-02-24T07:38:38.670Z,23.23
2019-02-24T07:41:05.983Z,22.87
2019-02-24T07:43:33.301Z,21.20
2019-02-24T07:46:00.695Z,19.57
2019-02-24T07:48:28.075Z,21.67
2019-02-24T07:50:55.426Z,20.60
2019-02-24T07:53:22.754Z,19.37
2019-02-24T07:55:50.008Z,24.77
2019-02-24T07:58:17.524Z,22.60
2019-02-24T08:00:46.565Z,22.73
2019-02-24T08:03:14.040Z,24.07
2019-02-24T08:05:41.413Z,22.43
2019-02-24T08:08:16.235Z,27.50
2019-02-24T08:10:38.341Z,25.77
2019-02-24T08:13:05.600Z,22.40
2019-02-24T08:15:32.868Z,25.97
2019-02-24T08:18:01.045Z,23.63
2019-02-24T08:20:28.351Z,22.27
2019-02-24T08:22:55.595Z,23.90
2019-02-24T08:25:23.196Z,21.27
2019-02-24T08:27:50.513Z,23.40
2019-02-24T08:30:17.780Z,24.67
2019-02-24T08:32:45.026Z,21.33
2019-02-24T08:35:12.959Z,19.00
2019-02-24T08:37:40.709Z,19.33
2019-02-24T08:40:08.731Z,17.67
2019-02-24T08:42:36.069Z,23.27
2019-02-24T08:45:03.469Z,21.87
2019-02-24T08:47:30.771Z,24.73
2019-02-24T08:49:58.025Z,21.93
2019-02-24T08:52:25.364Z,20.53
2019-02-24T08:54:52.631Z,19.60
2019-02-24T08:57:19.897Z,21.00
2019-02-24T08:59:47.213Z,19.93
2019-02-24T09:02:14.473Z,21.20
2019-02-24T09:04:41.765Z,19.13
2019-02-24T09:07:09.026Z,24.20
2019-02-24T09:09:36.321Z,19.57
2019-02-24T09:12:03.618Z,21.17
2019-02-24T09:14:30.880Z,19.80
2019-02-24T09:16:58.721Z,20.23
2019-02-24T09:19:26.037Z,20.13
2019-02-24T09:21:53.391Z,19.67
2019-02-24T09:24:20.684Z,20.50
2019-02-24T09:26:47.970Z,20.93
2019-02-24T09:29:15.222Z,18.03
2019-02-24T09:31:42.527Z,20.30
2019-02-24T09:34:10.166Z,21.90
2019-02-24T09:36:40.568Z,17.33
2019-02-24T09:39:07.814Z,18.83
2019-02-24T09:41:35.229Z,17.73
2019-02-24T09:44:02.808Z,18.77
2019-02-24T09:46:30.564Z,15.23
2019-02-24T09:48:57.874Z,18.47
2019-02-24T09:51:25.206Z,20.83
2019-02-24T09:53:52.495Z,16.20
2019-02-24T09:56:19.835Z,17.03
2019-02-24T09:58:47.497Z,17.80
2019-02-24T10:01:17.802Z,20.47
2019-02-24T10:03:45.075Z,19.57
2019-02-24T10:06:12.348Z,19.07
2019-02-24T10:08:39.657Z,17.40
2019-02-24T10:11:06.923Z,21.20
2019-02-24T10:13:34.500Z,20.40
2019-02-24T10:16:02.107Z,20.17
2019-02-24T10:18:29.375Z,18.13
2019-02-24T10:20:56.652Z,15.90
2019-02-24T10:23:24.518Z,20.23
2019-02-24T10:25:52.404Z,18.90
2019-02-24T10:28:25.730Z,18.07
2019-02-24T10:31:05.198Z,18.83
2019-02-24T10:33:52.237Z,20.20
2019-02-24T10:36:42.857Z,19.43
2019-02-24T10:39:13.404Z,16.13
2019-02-24T10:41:40.952Z,16.13
2019-02-24T10:44:09.739Z,15.53
2019-02-24T10:46:37.119Z,18.93
2019-02-24T10:49:04.430Z,18.00
2019-02-24T10:51:31.764Z,18.73
2019-02-24T10:53:59.100Z,19.07
2019-02-24T10:56:26.360Z,18.90
2019-02-24T10:58:53.664Z,17.53
2019-02-24T11:01:29.312Z,16.17
2019-02-24T11:03:50.886Z,17.83
2019-02-24T11:06:18.141Z,18.10
2019-02-24T11:08:45.422Z,16.57
2019-02-24T11:11:12.679Z,17.93
2019-02-24T11:13:40.183Z,16.70
2019-02-24T11:16:07.495Z,17.53
2019-02-24T11:18:34.844Z,16.50
2019-02-24T11:21:02.188Z,16.83
2019-02-24T11:23:29.449Z,15.93
2019-02-24T11:25:56.752Z,15.63
2019-02-24T11:28:24.004Z,15.20
2019-02-24T11:30:51.272Z,16.90
2019-02-24T11:33:20.505Z,18.53
2019-02-24T11:35:47.834Z,16.00
2019-02-24T11:38:15.212Z,16.57
2019-02-24T11:40:42.688Z,17.70
2019-02-24T11:43:09.954Z,15.80
2019-02-24T11:45:37.336Z,16.97
2019-02-24T11:48:04.704Z,17.63
2019-02-24T11:50:34.705Z,20.90
2019-02-24T11:53:02.164Z,18.40
2019-02-24T11:55:29.441Z,17.20
2019-02-24T11:57:56.783Z,16.77
2019-02-24T12:00:26.713Z,16.67
2019-02-24T12:02:54.012Z,17.93
2019-02-24T12:05:21.257Z,15.37
2019-02-24T12:07:48.749Z,19.93
2019-02-24T12:10:16.014Z,18.53
2019-02-24T12:12:43.342Z,18.40
2019-02-24T12:15:11.405Z,16.67
2019-02-24T12:17:38.872Z,18.97
2019-02-24T12:20:08.401Z,18.03
2019-02-24T12:22:35.754Z,17.43
2019-02-24T12:25:03.331Z,16.17
2019-02-24T12:27:30.695Z,17.87
2019-02-24T12:29:58.043Z,17.27
2019-02-24T12:32:25.316Z,17.00
2019-02-24T12:34:52.830Z,16.43
2019-02-24T12:37:21.327Z,17.73
2019-02-24T12:39:48.606Z,15.50
2019-02-24T12:42:15.898Z,16.50
2019-02-24T12:44:45.643Z,16.13
2019-02-24T12:47:12.913Z,14.17
2019-02-24T12:49:40.369Z,14.13
2019-02-24T12:52:07.712Z,16.87
2019-02-24T12:54:36.323Z,18.47
2019-02-24T12:57:05.013Z,16.47
2019-02-24T12:59:33.415Z,13.40
2019-02-24T13:02:05.721Z,15.53
2019-02-24T13:04:29.942Z,15.23
2019-02-24T13:06:57.691Z,12.90
2019-02-24T13:09:25.114Z,14.00
2019-02-24T13:11:52.461Z,15.20
2019-02-24T13:14:19.746Z,13.57
2019-02-24T13:16:47.020Z,14.47
2019-02-24T13:19:14.418Z,17.80
2019-02-24T13:21:41.987Z,14.07
2019-02-24T13:24:09.272Z,16.00
2019-02-24T13:26:36.929Z,12.90
2019-02-24T13:29:04.303Z,14.20
2019-02-24T13:31:31.682Z,13.40
2019-02-24T13:33:59.003Z,12.03
2019-02-24T13:36:26.277Z,13.57
2019-02-24T13:38:53.543Z,13.43
2019-02-24T13:41:20.839Z,11.97
2019-02-24T13:43:48.150Z,17.53
2019-02-24T13:46:15.442Z,15.17
2019-02-24T13:48:42.698Z,14.63
2019-02-24T13:51:10.013Z,14.70
2019-02-24T13:53:38.187Z,13.93
2019-02-24T13:56:05.553Z,12.93
2019-02-24T13:58:32.827Z,12.57
2019-02-24T14:01:00.134Z,11.60
2019-02-24T14:03:27.495Z,12.03
2019-02-24T14:05:54.849Z,13.20
2019-02-24T14:08:22.152Z,12.17
2019-02-24T14:10:49.417Z,11.73
2019-02-24T14:13:16.698Z,13.97
2019-02-24T14:15:44.012Z,14.17
2019-02-24T14:18:11.308Z,13.23
2019-02-24T14:20:39.228Z,10.93
2019-02-24T14:23:06.547Z,15.37
2019-02-24T14:25:33.839Z,13.40
2019-02-24T14:28:01.239Z,13.67
2019-02-24T14:30:28.536Z,14.10
2019-02-24T14:32:56.008Z,12.63
2019-02-24T14:35:24.756Z,10.97
2019-02-24T14:37:58.478Z,12.73
2019-02-24T14:40:25.899Z,13.20
2019-02-24T14:42:53.208Z,12.60
2019-02-24T14:45:20.587Z,11.90
2019-02-24T14:47:48.759Z,13.33
2019-02-24T14:50:17.141Z,12.17
2019-02-24T14:52:44.451Z,11.23
2019-02-24T14:55:11.961Z,13.10
2019-02-24T14:57:42.713Z,10.17
2019-02-24T15:00:13.120Z,11.97
2019-02-24T15:02:42.708Z,9.50
2019-02-24T15:05:09.996Z,11.80
2019-02-24T15:07:37.273Z,9.00
2019-02-24T15:10:08.468Z,11.27
2019-02-24T15:12:35.799Z,10.70
2019-02-24T15:15:03.857Z,9.77
2019-02-24T15:17:31.998Z,12.03
2019-02-24T15:20:04.920Z,10.57
2019-02-24T15:22:32.973Z,10.27
2019-02-24T15:25:02.806Z,17.73
2019-02-24T15:27:30.162Z,16.33
2019-02-24T15:29:57.441Z,17.97
2019-02-24T15:32:24.730Z,25.40
2019-02-24T15:34:52.046Z,24.87
2019-02-24T15:37:19.405Z,23.20
2019-02-24T15:39:46.668Z,25.47
2019-02-24T15:42:14.770Z,21.10
2019-02-24T15:44:45.397Z,23.73
2019-02-24T15:47:12.675Z,29.30
2019-02-24T15:49:44.033Z,24.70
2019-02-24T15:52:15.510Z,27.63
2019-02-24T15:54:43.045Z,25.10
2019-02-24T15:57:18.413Z,23.67
2019-02-24T15:59:55.427Z,25.93
2019-02-24T16:02:26.396Z,29.30
2019-02-24T16:05:02.925Z,29.60
2019-02-24T16:07:51.265Z,27.30
2019-02-24T16:10:37.612Z,29.73
2019-02-24T16:13:16.712Z,28.73
2019-02-24T16:15:49.926Z,28.67
2019-02-24T16:18:22.559Z,29.43
2019-02-24T16:20:55.082Z,30.13
2019-02-24T16:23:22.603Z,29.23
2019-02-24T16:25:49.861Z,30.23
2019-02-24T16:28:27.264Z,29.63
2019-02-24T16:31:00.162Z,29.07
2019-02-24T16:33:31.937Z,30.33
2019-02-24T16:36:03.864Z,32.13
2019-02-24T16:38:58.390Z,32.83
2019-02-24T16:41:26.225Z,25.13
2019-02-24T16:44:27.607Z,27.20
2019-02-24T16:47:01.992Z,30.40
2019-02-24T16:49:29.428Z,31.50
2019-02-24T16:51:57.948Z,31.17
2019-02-24T16:54:28.949Z,31.63
2019-02-24T16:57:22.276Z,32.93
2019-02-24T16:59:50.871Z,32.27
2019-02-24T17:02:22.982Z,31.33
2019-02-24T17:04:52.591Z,33.13
2019-02-24T17:07:32.862Z,36.03
2019-02-24T17:10:01.466Z,31.00
2019-02-24T17:12:29.690Z,29.50
2019-02-24T17:15:00.001Z,31.23
2019-02-24T17:17:27.267Z,26.47
2019-02-24T17:22:29.711Z,29.57
2019-02-24T17:25:12.169Z,28.40
2019-02-24T17:27:44.843Z,34.93
2019-02-24T17:30:17.978Z,35.63
2019-02-24T17:32:55.056Z,30.30
2019-02-24T17:36:07.717Z,30.13
2019-02-24T17:42:32.697Z,30.07
2019-02-24T17:45:00.027Z,28.50
2019-02-24T17:47:50.932Z,29.73
2019-02-24T17:50:56.420Z,28.73
2019-02-24T17:53:23.823Z,33.10
2019-02-24T17:55:51.275Z,29.43
2019-02-24T17:58:54.169Z,27.07
2019-02-24T18:01:21.994Z,28.70
2019-02-24T18:03:49.387Z,27.97
2019-02-24T18:06:16.684Z,26.77
2019-02-24T18:08:43.991Z,28.13
2019-02-24T18:11:11.222Z,28.53
2019-02-24T18:13:38.471Z,27.17
2019-02-24T18:16:05.781Z,29.87
2019-02-24T18:18:33.024Z,54.43
2019-02-24T18:21:00.296Z,54.33
2019-02-24T18:23:27.781Z,42.37
2019-02-24T18:25:55.160Z,36.50
2019-02-24T18:28:22.855Z,34.63
2019-02-24T18:30:50.141Z,35.43
2019-02-24T18:33:17.434Z,32.23
2019-02-24T18:35:44.690Z,31.23
2019-02-24T18:38:11.972Z,34.60
2019-02-24T18:40:39.315Z,31.30
2019-02-24T18:43:06.737Z,35.37
2019-02-24T18:45:33.999Z,35.27
2019-02-24T18:48:01.311Z,32.27
2019-02-24T18:50:28.641Z,32.10
2019-02-24T18:52:55.890Z,34.37
2019-02-24T18:55:23.205Z,33.40
2019-02-24T18:57:50.460Z,31.10
2019-02-24T19:00:18.220Z,35.07
2019-02-24T19:02:45.493Z,37.63
2019-02-24T19:05:13.039Z,34.23
2019-02-24T19:07:40.366Z,35.63
2019-02-24T19:10:09.353Z,35.50
2019-02-24T19:12:36.900Z,38.87
2019-02-24T19:15:04.873Z,39.53
2019-02-24T19:17:32.138Z,41.73
2019-02-24T19:19:59.701Z,37.93
2019-02-24T19:22:26.990Z,37.67
2019-02-24T19:24:54.232Z,39.57
2019-02-24T19:27:21.685Z,37.70
2019-02-24T19:29:49.080Z,36.53
2019-02-24T19:32:16.309Z,39.67
2019-02-24T19:34:43.632Z,36.10
2019-02-24T19:37:11.169Z,35.23
2019-02-24T19:39:38.437Z,36.80
2019-02-24T19:42:05.707Z,33.63
2019-02-24T19:44:32.976Z,30.60
2019-02-24T19:47:00.215Z,30.17
2019-02-24T19:49:27.474Z,28.03
2019-02-24T19:51:54.748Z,32.80
2019-02-24T19:54:21.986Z,35.63
2019-02-24T19:56:49.252Z,32.37
2019-02-24T19:59:16.527Z,30.10
2019-02-24T20:01:43.765Z,26.17
2019-02-24T20:04:15.987Z,28.00
2019-02-24T20:06:40.199Z,26.87
2019-02-24T20:09:07.737Z,29.27
2019-02-24T20:11:34.999Z,29.77
2019-02-24T20:14:02.277Z,36.53
2019-02-24T20:16:29.517Z,31.80
2019-02-24T20:18:56.852Z,30.70
2019-02-24T20:21:24.131Z,37.93
2019-02-24T20:23:51.461Z,39.10
2019-02-24T20:26:19.831Z,37.63
2019-02-24T20:28:47.578Z,35.80
2019-02-24T20:31:14.966Z,38.37
2019-02-24T20:33:42.341Z,36.63
2019-02-24T20:36:10.049Z,33.27
2019-02-24T20:38:37.306Z,32.63
2019-02-24T20:41:04.926Z,31.90
2019-02-24T20:43:32.437Z,35.77
2019-02-24T20:45:59.707Z,34.90
2019-02-24T20:48:26.984Z,38.10
2019-02-24T20:50:54.285Z,40.47
2019-02-24T20:53:21.561Z,38.17
2019-02-24T20:55:49.024Z,40.83
2019-02-24T20:58:16.247Z,37.70
2019-02-24T21:00:43.682Z,34.70
2019-02-24T21:03:13.271Z,36.17
2019-02-24T21:05:40.599Z,37.13
2019-02-24T21:08:08.110Z,37.90
2019-02-24T21:10:35.736Z,36.83
2019-02-24T21:13:03.045Z,37.90
2019-02-24T21:15:30.294Z,37.37
2019-02-24T21:17:57.526Z,31.57
2019-02-24T21:20:26.620Z,31.13
2019-02-24T21:22:53.975Z,32.47
2019-02-24T21:25:21.265Z,28.97
2019-02-24T21:27:48.505Z,27.70
2019-02-24T21:30:16.067Z,28.70
2019-02-24T21:32:43.427Z,29.57
2019-02-24T21:35:10.928Z,29.60
2019-02-24T21:37:38.169Z,31.50
2019-02-24T21:40:05.841Z,32.17
2019-02-24T21:42:33.113Z,30.07
2019-02-24T21:45:00.338Z,32.03
2019-02-24T21:47:27.625Z,30.83
2019-02-24T21:49:54.874Z,29.83
2019-02-24T21:52:22.117Z,34.83
2019-02-24T21:54:49.404Z,32.10
2019-02-24T21:57:16.661Z,30.83
2019-02-24T21:59:43.901Z,29.27
2019-02-24T22:02:11.179Z,29.87
2019-02-24T22:04:38.427Z,29.33
2019-02-24T22:07:05.672Z,34.30
2019-02-24T22:09:32.947Z,31.57
2019-02-24T22:12:00.236Z,28.53
2019-02-24T22:14:27.512Z,29.20
2019-02-24T22:16:54.774Z,28.30
2019-02-24T22:19:22.065Z,29.00
2019-02-24T22:21:49.376Z,33.53
2019-02-24T22:24:16.661Z,30.50
2019-02-24T22:26:43.946Z,31.87
2019-02-24T22:29:11.196Z,29.20
2019-02-24T22:31:38.504Z,27.50
2019-02-24T22:34:05.761Z,29.60
2019-02-24T22:36:33.003Z,29.67
2019-02-24T22:39:00.305Z,31.67
2019-02-24T22:41:27.569Z,32.57
2019-02-24T22:43:54.871Z,28.60
2019-02-24T22:46:22.178Z,28.67
2019-02-24T22:48:49.432Z,32.17
2019-02-24T22:51:16.735Z,30.17
2019-02-24T22:53:44.015Z,27.40
2019-02-24T22:56:11.252Z,27.23
2019-02-24T22:58:38.533Z,27.60
2019-02-24T23:01:11.869Z,30.23
2019-02-24T23:03:40.960Z,33.73
2019-02-24T23:06:08.224Z,28.10
2019-02-24T23:08:35.532Z,29.80
2019-02-24T23:11:02.865Z,26.33
2019-02-24T23:13:30.104Z,28.90
2019-02-24T23:15:57.420Z,28.93
2019-02-24T23:18:24.659Z,27.33
2019-02-24T23:20:51.983Z,27.73
2019-02-24T23:23:19.261Z,33.87
2019-02-24T23:25:46.529Z,30.07
2019-02-24T23:28:13.812Z,30.80
2019-02-24T23:30:41.093Z,31.97
2019-02-24T23:33:08.406Z,29.83
2019-02-24T23:35:35.694Z,34.67
2019-02-24T23:38:03.049Z,26.67
2019-02-24T23:40:30.336Z,29.30
2019-02-24T23:42:57.588Z,30.43
2019-02-24T23:45:24.909Z,27.97
2019-02-24T23:47:52.217Z,27.47
2019-02-24T23:50:19.486Z,26.53
2019-02-24T23:52:46.758Z,26.03
2019-02-24T23:55:14.106Z,25.93
2019-02-24T23:57:41.341Z,27.23
